sensor_id;sensor_type;location;lat;lon;timestamp;temperature;humidity
11436;DHT22;5774;48.778;8.904;2022-08-19T00:00:28;25.00;97.90
11436;DHT22;5774;48.778;8.904;2022-08-19T00:02:55;25.00;98.00
11436;DHT22;5774;48.778;8.904;2022-08-19T00:05:22;25.00;97.90
11436;DHT22;5774;48.778;8.904;2022-08-19T00:07:49;25.00;98.00
11436;DHT22;5774;48.778;8.904;2022-08-19T00:10:16;25.00;98.00
11436;DHT22;5774;48.778;8.904;2022-08-19T00:12:45;25.00;98.10
11436;DHT22;5774;48.778;8.904;2022-08-19T00:15:12;24.90;98.00
11436;DHT22;5774;48.778;8.904;2022-08-19T00:17:43;24.90;98.00
11436;DHT22;5774;48.778;8.904;2022-08-19T00:20:10;25.00;98.10
11436;DHT22;5774;48.778;8.904;2022-08-19T00:22:38;25.00;98.10
11436;DHT22;5774;48.778;8.904;2022-08-19T00:25:06;25.00;98.10
11436;DHT22;5774;48.778;8.904;2022-08-19T00:27:34;25.00;98.10
11436;DHT22;5774;48.778;8.904;2022-08-19T00:30:00;25.00;98.10
11436;DHT22;5774;48.778;8.904;2022-08-19T00:32:28;25.00;98.10
11436;DHT22;5774;48.778;8.904;2022-08-19T00:34:57;25.00;98.10
11436;DHT22;5774;48.778;8.904;2022-08-19T00:37:24;25.00;98.10
11436;DHT22;5774;48.778;8.904;2022-08-19T00:39:52;25.00;98.10
11436;DHT22;5774;48.778;8.904;2022-08-19T00:42:20;25.00;98.20
11436;DHT22;5774;48.778;8.904;2022-08-19T00:44:47;24.90;98.20
11436;DHT22;5774;48.778;8.904;2022-08-19T00:47:14;25.00;98.20
11436;DHT22;5774;48.778;8.904;2022-08-19T00:49:41;25.00;98.20
11436;DHT22;5774;48.778;8.904;2022-08-19T00:52:18;25.00;98.20
11436;DHT22;5774;48.778;8.904;2022-08-19T00:54:46;24.90;98.10
11436;DHT22;5774;48.778;8.904;2022-08-19T00:57:14;25.00;98.20
11436;DHT22;5774;48.778;8.904;2022-08-19T00:59:44;25.00;98.20
11436;DHT22;5774;48.778;8.904;2022-08-19T01:02:13;25.00;98.20
11436;DHT22;5774;48.778;8.904;2022-08-19T01:04:40;25.00;98.20
11436;DHT22;5774;48.778;8.904;2022-08-19T01:07:07;25.00;98.20
11436;DHT22;5774;48.778;8.904;2022-08-19T01:09:35;25.00;98.20
11436;DHT22;5774;48.778;8.904;2022-08-19T01:12:02;25.00;98.20
11436;DHT22;5774;48.778;8.904;2022-08-19T01:14:29;25.00;98.20
11436;DHT22;5774;48.778;8.904;2022-08-19T01:16:56;25.00;98.10
11436;DHT22;5774;48.778;8.904;2022-08-19T01:19:26;25.00;98.10
11436;DHT22;5774;48.778;8.904;2022-08-19T01:21:55;25.00;98.20
11436;DHT22;5774;48.778;8.904;2022-08-19T01:24:26;25.00;98.20
11436;DHT22;5774;48.778;8.904;2022-08-19T01:26:52;25.00;98.10
11436;DHT22;5774;48.778;8.904;2022-08-19T01:29:19;25.00;98.10
11436;DHT22;5774;48.778;8.904;2022-08-19T01:31:46;25.00;98.10
11436;DHT22;5774;48.778;8.904;2022-08-19T01:34:14;25.00;98.10
11436;DHT22;5774;48.778;8.904;2022-08-19T01:36:42;25.00;98.10
11436;DHT22;5774;48.778;8.904;2022-08-19T01:39:13;25.00;98.10
11436;DHT22;5774;48.778;8.904;2022-08-19T01:41:43;25.00;98.10
11436;DHT22;5774;48.778;8.904;2022-08-19T01:44:10;25.00;98.10
11436;DHT22;5774;48.778;8.904;2022-08-19T01:46:37;25.00;98.10
11436;DHT22;5774;48.778;8.904;2022-08-19T01:49:05;25.00;98.10
11436;DHT22;5774;48.778;8.904;2022-08-19T01:51:33;25.00;98.10
11436;DHT22;5774;48.778;8.904;2022-08-19T01:53:59;25.00;98.00
11436;DHT22;5774;48.778;8.904;2022-08-19T01:56:26;25.00;98.00
11436;DHT22;5774;48.778;8.904;2022-08-19T01:58:55;25.00;98.00
11436;DHT22;5774;48.778;8.904;2022-08-19T02:01:25;25.00;98.00
11436;DHT22;5774;48.778;8.904;2022-08-19T02:03:52;25.00;98.00
11436;DHT22;5774;48.778;8.904;2022-08-19T02:06:20;25.00;98.00
11436;DHT22;5774;48.778;8.904;2022-08-19T02:08:46;25.00;98.00
11436;DHT22;5774;48.778;8.904;2022-08-19T02:11:18;25.00;98.00
11436;DHT22;5774;48.778;8.904;2022-08-19T02:13:47;25.10;98.00
11436;DHT22;5774;48.778;8.904;2022-08-19T02:16:16;25.00;98.00
11436;DHT22;5774;48.778;8.904;2022-08-19T02:18:43;25.00;98.00
11436;DHT22;5774;48.778;8.904;2022-08-19T02:21:10;25.00;97.90
11436;DHT22;5774;48.778;8.904;2022-08-19T02:23:38;25.00;97.90
11436;DHT22;5774;48.778;8.904;2022-08-19T02:26:05;25.00;97.90
11436;DHT22;5774;48.778;8.904;2022-08-19T02:28:32;25.00;97.90
11436;DHT22;5774;48.778;8.904;2022-08-19T02:30:58;25.00;97.90
11436;DHT22;5774;48.778;8.904;2022-08-19T02:33:27;25.00;97.90
11436;DHT22;5774;48.778;8.904;2022-08-19T02:35:54;25.00;97.80
11436;DHT22;5774;48.778;8.904;2022-08-19T02:38:20;25.00;97.80
11436;DHT22;5774;48.778;8.904;2022-08-19T02:40:53;25.00;97.80
11436;DHT22;5774;48.778;8.904;2022-08-19T02:43:20;25.00;97.80
11436;DHT22;5774;48.778;8.904;2022-08-19T02:45:48;25.00;97.80
11436;DHT22;5774;48.778;8.904;2022-08-19T02:48:16;25.00;97.80
11436;DHT22;5774;48.778;8.904;2022-08-19T02:50:45;25.10;97.80
11436;DHT22;5774;48.778;8.904;2022-08-19T02:53:13;25.00;97.70
11436;DHT22;5774;48.778;8.904;2022-08-19T02:55:44;25.00;97.70
11436;DHT22;5774;48.778;8.904;2022-08-19T02:58:11;25.00;97.70
11436;DHT22;5774;48.778;8.904;2022-08-19T03:00:42;25.00;97.70
11436;DHT22;5774;48.778;8.904;2022-08-19T03:03:09;25.00;97.70
11436;DHT22;5774;48.778;8.904;2022-08-19T03:05:36;25.00;97.70
11436;DHT22;5774;48.778;8.904;2022-08-19T03:08:05;25.00;97.60
11436;DHT22;5774;48.778;8.904;2022-08-19T03:10:32;25.00;97.60
11436;DHT22;5774;48.778;8.904;2022-08-19T03:12:59;25.00;97.60
11436;DHT22;5774;48.778;8.904;2022-08-19T03:15:25;25.00;97.60
11436;DHT22;5774;48.778;8.904;2022-08-19T03:17:52;25.00;97.60
11436;DHT22;5774;48.778;8.904;2022-08-19T03:20:19;25.00;97.50
11436;DHT22;5774;48.778;8.904;2022-08-19T03:22:46;25.00;97.80
11436;DHT22;5774;48.778;8.904;2022-08-19T03:25:14;25.00;97.50
11436;DHT22;5774;48.778;8.904;2022-08-19T03:27:41;25.00;97.50
11436;DHT22;5774;48.778;8.904;2022-08-19T03:30:09;25.00;97.50
11436;DHT22;5774;48.778;8.904;2022-08-19T03:32:37;25.00;97.50
11436;DHT22;5774;48.778;8.904;2022-08-19T03:35:04;25.00;97.50
11436;DHT22;5774;48.778;8.904;2022-08-19T03:37:31;25.00;97.50
11436;DHT22;5774;48.778;8.904;2022-08-19T03:39:58;25.00;97.50
11436;DHT22;5774;48.778;8.904;2022-08-19T03:42:26;25.10;97.50
11436;DHT22;5774;48.778;8.904;2022-08-19T03:44:53;25.00;97.40
11436;DHT22;5774;48.778;8.904;2022-08-19T03:47:19;25.00;97.40
11436;DHT22;5774;48.778;8.904;2022-08-19T03:49:46;25.00;97.40
11436;DHT22;5774;48.778;8.904;2022-08-19T03:52:13;25.00;97.40
11436;DHT22;5774;48.778;8.904;2022-08-19T03:54:40;25.10;97.40
11436;DHT22;5774;48.778;8.904;2022-08-19T03:57:07;25.00;97.30
11436;DHT22;5774;48.778;8.904;2022-08-19T03:59:36;25.00;97.30
11436;DHT22;5774;48.778;8.904;2022-08-19T04:02:05;25.00;97.30
11436;DHT22;5774;48.778;8.904;2022-08-19T04:04:34;25.00;97.30
11436;DHT22;5774;48.778;8.904;2022-08-19T04:07:02;25.00;97.30
11436;DHT22;5774;48.778;8.904;2022-08-19T04:09:29;25.10;97.30
11436;DHT22;5774;48.778;8.904;2022-08-19T04:11:56;25.10;97.30
11436;DHT22;5774;48.778;8.904;2022-08-19T04:14:24;25.00;97.20
11436;DHT22;5774;48.778;8.904;2022-08-19T04:16:56;25.00;97.20
11436;DHT22;5774;48.778;8.904;2022-08-19T04:19:24;25.00;97.20
11436;DHT22;5774;48.778;8.904;2022-08-19T04:21:51;25.00;97.20
11436;DHT22;5774;48.778;8.904;2022-08-19T04:24:20;25.10;97.20
11436;DHT22;5774;48.778;8.904;2022-08-19T04:26:47;25.10;97.20
11436;DHT22;5774;48.778;8.904;2022-08-19T04:29:16;25.00;97.20
11436;DHT22;5774;48.778;8.904;2022-08-19T04:31:44;25.00;97.10
11436;DHT22;5774;48.778;8.904;2022-08-19T04:34:13;25.00;97.10
11436;DHT22;5774;48.778;8.904;2022-08-19T04:36:42;25.00;97.10
11436;DHT22;5774;48.778;8.904;2022-08-19T04:39:10;25.10;97.10
11436;DHT22;5774;48.778;8.904;2022-08-19T04:41:39;25.00;97.10
11436;DHT22;5774;48.778;8.904;2022-08-19T04:44:23;25.00;97.10
11436;DHT22;5774;48.778;8.904;2022-08-19T04:46:50;25.00;97.10
11436;DHT22;5774;48.778;8.904;2022-08-19T04:49:20;25.00;97.00
11436;DHT22;5774;48.778;8.904;2022-08-19T04:51:48;25.00;97.00
11436;DHT22;5774;48.778;8.904;2022-08-19T04:54:17;25.00;97.00
11436;DHT22;5774;48.778;8.904;2022-08-19T04:56:47;25.00;97.00
11436;DHT22;5774;48.778;8.904;2022-08-19T04:59:15;25.10;97.00
11436;DHT22;5774;48.778;8.904;2022-08-19T05:01:42;25.00;97.00
11436;DHT22;5774;48.778;8.904;2022-08-19T05:04:09;25.00;97.00
11436;DHT22;5774;48.778;8.904;2022-08-19T05:06:37;25.00;97.00
11436;DHT22;5774;48.778;8.904;2022-08-19T05:09:05;25.00;97.00
11436;DHT22;5774;48.778;8.904;2022-08-19T05:11:33;25.00;97.20
11436;DHT22;5774;48.778;8.904;2022-08-19T05:14:04;25.10;96.90
11436;DHT22;5774;48.778;8.904;2022-08-19T05:16:31;25.00;96.90
11436;DHT22;5774;48.778;8.904;2022-08-19T05:18:58;25.00;96.90
11436;DHT22;5774;48.778;8.904;2022-08-19T05:21:44;25.00;96.90
11436;DHT22;5774;48.778;8.904;2022-08-19T05:24:29;25.00;96.90
11436;DHT22;5774;48.778;8.904;2022-08-19T05:26:57;25.00;96.80
11436;DHT22;5774;48.778;8.904;2022-08-19T05:29:25;25.00;96.80
11436;DHT22;5774;48.778;8.904;2022-08-19T05:31:52;25.00;96.80
11436;DHT22;5774;48.778;8.904;2022-08-19T05:34:20;25.00;96.80
11436;DHT22;5774;48.778;8.904;2022-08-19T05:36:53;25.00;96.80
11436;DHT22;5774;48.778;8.904;2022-08-19T05:39:21;25.00;96.80
11436;DHT22;5774;48.778;8.904;2022-08-19T05:41:49;25.10;96.80
11436;DHT22;5774;48.778;8.904;2022-08-19T05:44:18;25.00;96.80
11436;DHT22;5774;48.778;8.904;2022-08-19T05:46:45;25.00;96.80
11436;DHT22;5774;48.778;8.904;2022-08-19T05:49:13;25.10;96.80
11436;DHT22;5774;48.778;8.904;2022-08-19T05:51:40;25.10;96.80
11436;DHT22;5774;48.778;8.904;2022-08-19T05:54:08;25.00;96.70
11436;DHT22;5774;48.778;8.904;2022-08-19T05:56:36;25.00;96.70
11436;DHT22;5774;48.778;8.904;2022-08-19T05:59:03;25.00;96.70
11436;DHT22;5774;48.778;8.904;2022-08-19T06:01:34;25.00;96.70
11436;DHT22;5774;48.778;8.904;2022-08-19T06:04:02;25.00;96.70
11436;DHT22;5774;48.778;8.904;2022-08-19T06:06:30;25.00;96.70
11436;DHT22;5774;48.778;8.904;2022-08-19T06:08:59;25.00;96.60
11436;DHT22;5774;48.778;8.904;2022-08-19T06:11:33;25.00;96.60
11436;DHT22;5774;48.778;8.904;2022-08-19T06:14:01;25.00;96.60
11436;DHT22;5774;48.778;8.904;2022-08-19T06:16:30;25.10;96.60
11436;DHT22;5774;48.778;8.904;2022-08-19T06:19:01;25.00;96.60
11436;DHT22;5774;48.778;8.904;2022-08-19T06:21:29;25.10;96.90
11436;DHT22;5774;48.778;8.904;2022-08-19T06:23:56;25.00;96.60
11436;DHT22;5774;48.778;8.904;2022-08-19T06:26:24;25.00;96.60
11436;DHT22;5774;48.778;8.904;2022-08-19T06:28:53;25.00;96.60
11436;DHT22;5774;48.778;8.904;2022-08-19T06:31:20;25.00;96.60
11436;DHT22;5774;48.778;8.904;2022-08-19T06:33:49;25.00;96.60
11436;DHT22;5774;48.778;8.904;2022-08-19T06:36:17;25.00;96.50
11436;DHT22;5774;48.778;8.904;2022-08-19T06:38:45;25.00;96.50
11436;DHT22;5774;48.778;8.904;2022-08-19T06:41:11;25.00;96.50
11436;DHT22;5774;48.778;8.904;2022-08-19T06:43:38;25.00;96.50
11436;DHT22;5774;48.778;8.904;2022-08-19T06:46:10;25.00;96.50
11436;DHT22;5774;48.778;8.904;2022-08-19T06:48:39;25.00;96.50
11436;DHT22;5774;48.778;8.904;2022-08-19T06:51:05;25.00;96.40
11436;DHT22;5774;48.778;8.904;2022-08-19T06:53:32;25.10;96.50
11436;DHT22;5774;48.778;8.904;2022-08-19T06:55:59;25.00;96.40
11436;DHT22;5774;48.778;8.904;2022-08-19T06:58:27;25.00;96.40
11436;DHT22;5774;48.778;8.904;2022-08-19T07:01:01;25.10;96.40
11436;DHT22;5774;48.778;8.904;2022-08-19T07:03:34;25.00;96.40
11436;DHT22;5774;48.778;8.904;2022-08-19T07:06:02;25.00;96.40
11436;DHT22;5774;48.778;8.904;2022-08-19T07:08:29;25.00;96.40
11436;DHT22;5774;48.778;8.904;2022-08-19T07:10:59;25.00;96.40
11436;DHT22;5774;48.778;8.904;2022-08-19T07:13:26;25.00;95.80
11436;DHT22;5774;48.778;8.904;2022-08-19T07:15:53;24.90;95.60
11436;DHT22;5774;48.778;8.904;2022-08-19T07:18:20;24.70;95.50
11436;DHT22;5774;48.778;8.904;2022-08-19T07:20:49;24.60;95.70
11436;DHT22;5774;48.778;8.904;2022-08-19T07:23:15;24.50;95.80
11436;DHT22;5774;48.778;8.904;2022-08-19T07:25:42;24.30;95.90
11436;DHT22;5774;48.778;8.904;2022-08-19T07:28:09;24.20;96.00
11436;DHT22;5774;48.778;8.904;2022-08-19T07:30:36;24.10;96.20
11436;DHT22;5774;48.778;8.904;2022-08-19T07:33:04;23.90;96.30
11436;DHT22;5774;48.778;8.904;2022-08-19T07:35:30;23.90;96.50
11436;DHT22;5774;48.778;8.904;2022-08-19T07:38:00;23.80;96.70
11436;DHT22;5774;48.778;8.904;2022-08-19T07:40:29;23.70;96.80
11436;DHT22;5774;48.778;8.904;2022-08-19T07:42:57;23.70;96.90
11436;DHT22;5774;48.778;8.904;2022-08-19T07:45:23;23.70;97.00
11436;DHT22;5774;48.778;8.904;2022-08-19T07:47:50;23.60;97.40
11436;DHT22;5774;48.778;8.904;2022-08-19T07:50:18;23.60;97.30
11436;DHT22;5774;48.778;8.904;2022-08-19T07:52:46;23.60;97.30
11436;DHT22;5774;48.778;8.904;2022-08-19T07:55:21;23.60;97.30
11436;DHT22;5774;48.778;8.904;2022-08-19T07:57:49;23.50;97.30
11436;DHT22;5774;48.778;8.904;2022-08-19T08:00:17;23.60;97.40
11436;DHT22;5774;48.778;8.904;2022-08-19T08:02:44;23.60;97.50
11436;DHT22;5774;48.778;8.904;2022-08-19T08:05:11;23.60;97.40
11436;DHT22;5774;48.778;8.904;2022-08-19T08:07:55;23.60;97.90
11436;DHT22;5774;48.778;8.904;2022-08-19T08:10:41;23.60;97.60
11436;DHT22;5774;48.778;8.904;2022-08-19T08:13:10;23.60;97.60
11436;DHT22;5774;48.778;8.904;2022-08-19T08:15:38;23.60;97.70
11436;DHT22;5774;48.778;8.904;2022-08-19T08:18:05;23.50;97.80
11436;DHT22;5774;48.778;8.904;2022-08-19T08:20:32;23.50;97.80
11436;DHT22;5774;48.778;8.904;2022-08-19T08:22:59;23.50;97.90
11436;DHT22;5774;48.778;8.904;2022-08-19T08:25:45;23.60;98.00
11436;DHT22;5774;48.778;8.904;2022-08-19T08:28:13;23.50;98.00
11436;DHT22;5774;48.778;8.904;2022-08-19T08:30:40;23.50;97.90
11436;DHT22;5774;48.778;8.904;2022-08-19T08:33:09;23.50;98.00
11436;DHT22;5774;48.778;8.904;2022-08-19T08:35:36;23.50;98.00
11436;DHT22;5774;48.778;8.904;2022-08-19T08:38:02;23.60;98.10
11436;DHT22;5774;48.778;8.904;2022-08-19T08:40:31;23.60;98.10
11436;DHT22;5774;48.778;8.904;2022-08-19T08:43:06;23.60;98.10
11436;DHT22;5774;48.778;8.904;2022-08-19T08:45:35;23.50;98.20
11436;DHT22;5774;48.778;8.904;2022-08-19T08:48:13;23.60;98.20
11436;DHT22;5774;48.778;8.904;2022-08-19T08:50:44;23.60;98.20
11436;DHT22;5774;48.778;8.904;2022-08-19T08:53:12;23.60;98.20
11436;DHT22;5774;48.778;8.904;2022-08-19T08:55:41;23.60;98.30
11436;DHT22;5774;48.778;8.904;2022-08-19T08:58:12;23.60;98.30
11436;DHT22;5774;48.778;8.904;2022-08-19T09:00:43;23.60;98.40
11436;DHT22;5774;48.778;8.904;2022-08-19T09:03:14;23.50;98.30
11436;DHT22;5774;48.778;8.904;2022-08-19T09:05:45;23.60;98.60
11436;DHT22;5774;48.778;8.904;2022-08-19T09:08:23;23.60;98.60
11436;DHT22;5774;48.778;8.904;2022-08-19T09:10:59;23.70;98.60
11436;DHT22;5774;48.778;8.904;2022-08-19T09:13:30;23.80;98.60
11436;DHT22;5774;48.778;8.904;2022-08-19T09:16:00;23.90;98.50
11436;DHT22;5774;48.778;8.904;2022-08-19T09:18:38;24.00;98.40
11436;DHT22;5774;48.778;8.904;2022-08-19T09:21:06;24.10;98.30
11436;DHT22;5774;48.778;8.904;2022-08-19T09:23:34;24.10;98.20
11436;DHT22;5774;48.778;8.904;2022-08-19T09:26:00;24.20;98.00
11436;DHT22;5774;48.778;8.904;2022-08-19T09:28:30;24.30;98.00
11436;DHT22;5774;48.778;8.904;2022-08-19T09:30:57;24.40;97.90
11436;DHT22;5774;48.778;8.904;2022-08-19T09:33:24;24.40;97.80
11436;DHT22;5774;48.778;8.904;2022-08-19T09:35:50;24.50;97.70
11436;DHT22;5774;48.778;8.904;2022-08-19T09:38:28;24.50;97.60
11436;DHT22;5774;48.778;8.904;2022-08-19T09:40:55;24.50;97.50
11436;DHT22;5774;48.778;8.904;2022-08-19T09:43:22;24.50;97.30
11436;DHT22;5774;48.778;8.904;2022-08-19T09:45:51;24.60;97.30
11436;DHT22;5774;48.778;8.904;2022-08-19T09:48:18;24.50;97.20
11436;DHT22;5774;48.778;8.904;2022-08-19T09:50:45;24.60;97.20
11436;DHT22;5774;48.778;8.904;2022-08-19T09:53:16;24.70;97.20
11436;DHT22;5774;48.778;8.904;2022-08-19T09:55:43;24.70;97.10
11436;DHT22;5774;48.778;8.904;2022-08-19T09:58:10;24.70;97.10
11436;DHT22;5774;48.778;8.904;2022-08-19T10:00:37;24.70;97.00
11436;DHT22;5774;48.778;8.904;2022-08-19T10:03:06;24.70;96.90
11436;DHT22;5774;48.778;8.904;2022-08-19T10:05:32;24.70;96.80
11436;DHT22;5774;48.778;8.904;2022-08-19T10:08:19;24.70;96.80
11436;DHT22;5774;48.778;8.904;2022-08-19T10:10:47;24.80;96.80
11436;DHT22;5774;48.778;8.904;2022-08-19T10:13:17;24.80;96.70
11436;DHT22;5774;48.778;8.904;2022-08-19T10:15:47;24.80;96.60
11436;DHT22;5774;48.778;8.904;2022-08-19T10:18:18;24.80;96.50
11436;DHT22;5774;48.778;8.904;2022-08-19T10:20:47;24.90;96.50
11436;DHT22;5774;48.778;8.904;2022-08-19T10:23:14;24.90;96.40
11436;DHT22;5774;48.778;8.904;2022-08-19T10:25:41;24.90;96.40
11436;DHT22;5774;48.778;8.904;2022-08-19T10:28:08;24.90;96.30
11436;DHT22;5774;48.778;8.904;2022-08-19T10:30:37;24.90;96.30
11436;DHT22;5774;48.778;8.904;2022-08-19T10:33:04;24.90;96.20
11436;DHT22;5774;48.778;8.904;2022-08-19T10:35:33;24.90;96.10
11436;DHT22;5774;48.778;8.904;2022-08-19T10:38:02;24.90;96.10
11436;DHT22;5774;48.778;8.904;2022-08-19T10:40:28;24.90;96.10
11436;DHT22;5774;48.778;8.904;2022-08-19T10:42:55;24.80;95.30
11436;DHT22;5774;48.778;8.904;2022-08-19T10:45:22;24.60;95.20
11436;DHT22;5774;48.778;8.904;2022-08-19T10:47:51;24.50;95.50
11436;DHT22;5774;48.778;8.904;2022-08-19T10:50:18;24.50;95.80
11436;DHT22;5774;48.778;8.904;2022-08-19T10:53:05;24.60;95.90
11436;DHT22;5774;48.778;8.904;2022-08-19T10:55:33;24.60;95.90
11436;DHT22;5774;48.778;8.904;2022-08-19T10:58:18;24.70;96.00
11436;DHT22;5774;48.778;8.904;2022-08-19T11:00:50;24.70;95.90
11436;DHT22;5774;48.778;8.904;2022-08-19T11:03:21;24.80;95.90
11436;DHT22;5774;48.778;8.904;2022-08-19T11:05:56;24.80;95.90
11436;DHT22;5774;48.778;8.904;2022-08-19T11:08:25;24.90;95.90
11436;DHT22;5774;48.778;8.904;2022-08-19T11:10:52;24.90;95.80
11436;DHT22;5774;48.778;8.904;2022-08-19T11:13:22;24.90;95.70
11436;DHT22;5774;48.778;8.904;2022-08-19T11:15:55;24.90;95.70
11436;DHT22;5774;48.778;8.904;2022-08-19T11:18:24;24.90;95.60
11436;DHT22;5774;48.778;8.904;2022-08-19T11:21:04;24.90;95.60
11436;DHT22;5774;48.778;8.904;2022-08-19T11:23:33;25.00;95.60
11436;DHT22;5774;48.778;8.904;2022-08-19T11:26:00;24.90;95.50
11436;DHT22;5774;48.778;8.904;2022-08-19T11:28:27;25.00;95.80
11436;DHT22;5774;48.778;8.904;2022-08-19T11:30:54;25.00;95.50
11436;DHT22;5774;48.778;8.904;2022-08-19T11:33:20;25.00;95.50
11436;DHT22;5774;48.778;8.904;2022-08-19T11:35:47;25.00;95.40
11436;DHT22;5774;48.778;8.904;2022-08-19T11:38:14;25.10;95.40
11436;DHT22;5774;48.778;8.904;2022-08-19T11:40:42;25.00;95.40
11436;DHT22;5774;48.778;8.904;2022-08-19T11:43:09;25.10;95.30
11436;DHT22;5774;48.778;8.904;2022-08-19T11:45:36;25.10;95.30
11436;DHT22;5774;48.778;8.904;2022-08-19T11:48:03;25.10;95.20
11436;DHT22;5774;48.778;8.904;2022-08-19T11:50:29;25.10;95.20
11436;DHT22;5774;48.778;8.904;2022-08-19T11:52:56;25.10;95.20
11436;DHT22;5774;48.778;8.904;2022-08-19T11:55:23;25.10;95.20
11436;DHT22;5774;48.778;8.904;2022-08-19T11:57:51;25.10;95.20
11436;DHT22;5774;48.778;8.904;2022-08-19T12:00:18;25.10;95.10
11436;DHT22;5774;48.778;8.904;2022-08-19T12:02:45;25.10;95.10
11436;DHT22;5774;48.778;8.904;2022-08-19T12:05:12;25.10;95.10
11436;DHT22;5774;48.778;8.904;2022-08-19T12:07:39;25.10;95.00
11436;DHT22;5774;48.778;8.904;2022-08-19T12:10:06;25.20;95.00
11436;DHT22;5774;48.778;8.904;2022-08-19T12:12:33;25.20;95.00
11436;DHT22;5774;48.778;8.904;2022-08-19T12:15:02;25.20;95.00
11436;DHT22;5774;48.778;8.904;2022-08-19T12:17:29;25.20;94.90
11436;DHT22;5774;48.778;8.904;2022-08-19T12:19:56;25.30;94.90
11436;DHT22;5774;48.778;8.904;2022-08-19T12:22:22;25.30;94.80
11436;DHT22;5774;48.778;8.904;2022-08-19T12:24:49;25.30;94.70
11436;DHT22;5774;48.778;8.904;2022-08-19T12:27:18;25.30;94.70
11436;DHT22;5774;48.778;8.904;2022-08-19T12:29:45;25.30;94.60
11436;DHT22;5774;48.778;8.904;2022-08-19T12:32:13;25.40;94.60
11436;DHT22;5774;48.778;8.904;2022-08-19T12:34:40;25.40;94.60
11436;DHT22;5774;48.778;8.904;2022-08-19T12:37:07;25.40;94.60
11436;DHT22;5774;48.778;8.904;2022-08-19T12:39:35;25.40;94.50
11436;DHT22;5774;48.778;8.904;2022-08-19T12:42:03;25.50;94.50
11436;DHT22;5774;48.778;8.904;2022-08-19T12:44:30;25.50;94.40
11436;DHT22;5774;48.778;8.904;2022-08-19T12:46:57;25.50;94.40
11436;DHT22;5774;48.778;8.904;2022-08-19T12:49:26;25.50;94.30
11436;DHT22;5774;48.778;8.904;2022-08-19T12:51:54;25.50;94.30
11436;DHT22;5774;48.778;8.904;2022-08-19T12:54:20;25.50;94.20
11436;DHT22;5774;48.778;8.904;2022-08-19T12:56:47;25.50;94.20
11436;DHT22;5774;48.778;8.904;2022-08-19T12:59:14;25.50;94.20
11436;DHT22;5774;48.778;8.904;2022-08-19T13:01:42;25.50;94.20
11436;DHT22;5774;48.778;8.904;2022-08-19T13:04:09;25.50;94.20
11436;DHT22;5774;48.778;8.904;2022-08-19T13:06:37;25.50;94.20
11436;DHT22;5774;48.778;8.904;2022-08-19T13:09:04;25.50;94.20
11436;DHT22;5774;48.778;8.904;2022-08-19T13:11:31;25.50;94.20
11436;DHT22;5774;48.778;8.904;2022-08-19T13:14:00;25.50;94.10
11436;DHT22;5774;48.778;8.904;2022-08-19T13:16:27;25.50;94.10
11436;DHT22;5774;48.778;8.904;2022-08-19T13:18:54;25.50;94.10
11436;DHT22;5774;48.778;8.904;2022-08-19T13:21:23;25.50;94.10
11436;DHT22;5774;48.778;8.904;2022-08-19T13:23:53;25.40;94.00
11436;DHT22;5774;48.778;8.904;2022-08-19T13:26:20;25.50;94.10
11436;DHT22;5774;48.778;8.904;2022-08-19T13:28:47;25.40;91.90
11436;DHT22;5774;48.778;8.904;2022-08-19T13:31:32;25.30;91.80
11436;DHT22;5774;48.778;8.904;2022-08-19T13:34:18;25.20;91.60
11436;DHT22;5774;48.778;8.904;2022-08-19T13:36:51;25.10;91.90
11436;DHT22;5774;48.778;8.904;2022-08-19T13:39:20;25.10;92.20
11436;DHT22;5774;48.778;8.904;2022-08-19T13:41:48;25.10;92.40
11436;DHT22;5774;48.778;8.904;2022-08-19T13:44:15;25.10;92.70
11436;DHT22;5774;48.778;8.904;2022-08-19T13:46:43;25.10;92.80
11436;DHT22;5774;48.778;8.904;2022-08-19T13:49:10;25.20;93.00
11436;DHT22;5774;48.778;8.904;2022-08-19T13:51:37;25.20;93.10
11436;DHT22;5774;48.778;8.904;2022-08-19T13:54:05;25.20;93.10
11436;DHT22;5774;48.778;8.904;2022-08-19T13:56:33;25.20;93.20
11436;DHT22;5774;48.778;8.904;2022-08-19T13:59:01;25.30;93.20
11436;DHT22;5774;48.778;8.904;2022-08-19T14:01:29;25.30;93.30
11436;DHT22;5774;48.778;8.904;2022-08-19T14:03:56;25.30;93.30
11436;DHT22;5774;48.778;8.904;2022-08-19T14:06:23;25.30;93.40
11436;DHT22;5774;48.778;8.904;2022-08-19T14:08:50;25.30;93.40
11436;DHT22;5774;48.778;8.904;2022-08-19T14:11:18;25.30;93.40
11436;DHT22;5774;48.778;8.904;2022-08-19T14:13:46;25.30;93.40
11436;DHT22;5774;48.778;8.904;2022-08-19T14:16:13;25.30;93.40
11436;DHT22;5774;48.778;8.904;2022-08-19T14:18:40;25.30;93.50
11436;DHT22;5774;48.778;8.904;2022-08-19T14:21:08;25.30;93.40
11436;DHT22;5774;48.778;8.904;2022-08-19T14:23:40;25.30;93.40
11436;DHT22;5774;48.778;8.904;2022-08-19T14:26:08;25.30;93.40
11436;DHT22;5774;48.778;8.904;2022-08-19T14:28:36;25.30;93.40
11436;DHT22;5774;48.778;8.904;2022-08-19T14:31:07;25.30;93.40
11436;DHT22;5774;48.778;8.904;2022-08-19T14:33:34;25.30;93.50
11436;DHT22;5774;48.778;8.904;2022-08-19T14:36:01;25.30;93.50
11436;DHT22;5774;48.778;8.904;2022-08-19T14:38:27;25.30;93.50
11436;DHT22;5774;48.778;8.904;2022-08-19T14:41:04;25.30;93.50
11436;DHT22;5774;48.778;8.904;2022-08-19T14:43:33;25.30;93.50
11436;DHT22;5774;48.778;8.904;2022-08-19T14:45:59;25.30;93.50
11436;DHT22;5774;48.778;8.904;2022-08-19T14:48:28;25.30;93.50
11436;DHT22;5774;48.778;8.904;2022-08-19T14:50:55;25.40;93.60
11436;DHT22;5774;48.778;8.904;2022-08-19T14:53:21;25.40;93.60
